Wetterstation Vordersexau
Wetterdaten: Woche 22.12.14 - 28.12.14 (KW52)
Datum Zeit Temp. A. Feuchte A. Luftdruck Regen Wind Richtung Taupunkt Windchill Windben
22.12.2014 00:00 5,6 C 77 % 1002,5 hPa 0,0 l/m 3,2 km/h SW 1,9 C 5,6 C 3,2 km/h
22.12.2014 01:00 6,1 C 77 % 1002,2 hPa 0,0 l/m 12,2 km/h SW 2,4 C 1,9 C 12,2 km/h
22.12.2014 02:00 5,9 C 78 % 1002,5 hPa 0,0 l/m 9,7 km/h W-SW 2,4 C 3,3 C 9,7 km/h
22.12.2014 03:00 5,8 C 77 % 1001,8 hPa 0,0 l/m 1,8 km/h W-SW 2,1 C 5,8 C 1,8 km/h
22.12.2014 04:00 5,4 C 78 % 1001,6 hPa 0,0 l/m 13,3 km/h W-SW 1,9 C 0,5 C 13,3 km/h
22.12.2014 05:00 5,5 C 78 % 1001,6 hPa 0,0 l/m 13,0 km/h S-SW 2,0 C 0,7 C 13,0 km/h
22.12.2014 06:00 4,5 C 80 % 1001,1 hPa 0,0 l/m 0,0 km/h SW 1,4 C 4,5 C 0,0 km/h
22.12.2014 07:00 4,4 C 80 % 1001,2 hPa 0,0 l/m 15,6 km/h W-SW 1,3 C -2,0 C 8,6 km/h
22.12.2014 08:00 4,5 C 80 % 1001,8 hPa 0,0 l/m 13,6 km/h S-SW 1,4 C -0,8 C 7,6 km/h
22.12.2014 09:00 6,4 C 77 % 1001,5 hPa 0,0 l/m 14,9 km/h S-SW 2,7 C 0,8 C 8,3 km/h
22.12.2014 10:00 7,9 C 72 % 1001,3 hPa 0,0 l/m 40,2 km/h S-SW 3,2 C -4,3 C 22,3 km/h
22.12.2014 11:00 7,9 C 71 % 1000,5 hPa 0,0 l/m 22,0 km/h SW 3,0 C -0,1 C 12,2 km/h
22.12.2014 12:00 8,5 C 70 % 999,8 hPa 0,0 l/m 24,0 km/h W 3,3 C 0,1 C 13,3 km/h
22.12.2014 13:00 9,9 C 65 % 999,1 hPa 0,0 l/m 23,3 km/h W 3,6 C 2,2 C 13,0 km/h
22.12.2014 14:00 10,1 C 62 % 998,8 hPa 0,0 l/m 22,0 km/h W-SW 3,2 C 2,8 C 12,2 km/h
22.12.2014 15:00 9,0 C 63 % 998,2 hPa 0,0 l/m 19,4 km/h W-SW 2,3 C 2,2 C 10,8 km/h
22.12.2014 16:00 8,6 C 60 % 998,1 hPa 0,0 l/m 15,6 km/h W-SW 1,3 C 3,2 C 8,6 km/h
22.12.2014 17:00 8,3 C 61 % 998,0 hPa 0,0 l/m 11,0 km/h S-SW 1,2 C 5,1 C 6,1 km/h
22.12.2014 18:00 8,4 C 57 % 998,6 hPa 0,0 l/m 20,7 km/h W 0,4 C 1,0 C 11,5 km/h
22.12.2014 19:00 7,8 C 58 % 998,7 hPa 0,0 l/m 1,4 km/h NW 0,1 C 7,8 C 1,4 km/h
22.12.2014 20:00 5,6 C 64 % 998,0 hPa 0,0 l/m 5,4 km/h SO -0,7 C 5,6 C 5,4 km/h
22.12.2014 21:00 3,4 C 71 % 998,2 hPa 0,0 l/m 0,0 km/h W -1,3 C 3,4 C 0,0 km/h
22.12.2014 22:00 3,6 C 75 % 997,9 hPa 0,0 l/m 3,6 km/h W-NW -0,4 C 3,6 C 3,6 km/h
22.12.2014 23:00 6,4 C 65 % 997,8 hPa 0,0 l/m 0,0 km/h W-SW 0,3 C 6,4 C 0,0 km/h
23.12.2014 00:00 7,4 C 60 % 997,8 hPa 0,0 l/m 10,4 km/h W-SW 0,2 C 4,5 C 10,4 km/h
23.12.2014 01:00 7,2 C 60 % 997,6 hPa 0,0 l/m 2,2 km/h W-NW -0,0 C 7,2 C 2,2 km/h
23.12.2014 02:00 7,4 C 59 % 997,7 hPa 0,0 l/m 0,0 km/h N-NO -0,1 C 7,4 C 0,0 km/h
23.12.2014 03:00 5,3 C 64 % 997,5 hPa 0,0 l/m 3,6 km/h N-NO -0,9 C 5,3 C 3,6 km/h
23.12.2014 04:00 5,4 C 65 % 997,2 hPa 0,0 l/m 0,0 km/h N-NO -0,6 C 5,4 C 0,0 km/h
23.12.2014 05:00 1,1 C 74 % 997,5 hPa 0,0 l/m 0,0 km/h NO -3,0 C 1,1 C 0,0 km/h
23.12.2014 06:00 0,1 C 79 % 997,3 hPa 0,0 l/m 0,0 km/h NO -3,1 C 0,1 C 0,0 km/h
23.12.2014 07:00 -0,5 C 82 % 997,3 hPa 0,0 l/m 0,0 km/h O-NO -3,2 C -0,5 C 0,0 km/h
23.12.2014 08:00 -0,2 C 84 % 997,2 hPa 0,0 l/m 0,0 km/h S -2,6 C -0,2 C 0,0 km/h
23.12.2014 09:00 7,8 C 71 % 997,2 hPa 0,0 l/m 0,0 km/h S-SO 2,9 C 7,8 C 0,0 km/h
23.12.2014 10:00 13,4 C 57 % 997,4 hPa 0,0 l/m 0,0 km/h S-SO 5,1 C 13,4 C 0,0 km/h
23.12.2014 11:00 15,8 C 49 % 996,9 hPa 0,0 l/m 0,0 km/h NO 5,1 C 15,8 C 0,0 km/h
23.12.2014 12:00 14,9 C 46 % 996,1 hPa 0,0 l/m 0,0 km/h NO 3,4 C 14,9 C 0,0 km/h
23.12.2014 13:00 15,6 C 47 % 995,2 hPa 0,2 l/m 0,0 km/h NO 4,3 C 15,6 C 0,0 km/h
23.12.2014 14:00 18,6 C 41 % 994,9 hPa 0,0 l/m 0,0 km/h NO 5,1 C 18,6 C 0,0 km/h
23.12.2014 15:00 18,3 C 41 % 994,7 hPa 0,0 l/m 0,0 km/h O 4,8 C 18,3 C 0,0 km/h
23.12.2014 16:00 6,4 C 58 % 994,6 hPa 0,0 l/m 0,0 km/h SO -1,2 C 6,4 C 0,0 km/h
23.12.2014 17:00 3,3 C 72 % 994,4 hPa 0,0 l/m 0,0 km/h O-NO -1,3 C 3,3 C 0,0 km/h
23.12.2014 18:00 1,8 C 77 % 994,2 hPa 0,0 l/m 0,0 km/h O-NO -1,8 C 1,8 C 0,0 km/h
23.12.2014 19:00 0,9 C 79 % 994,2 hPa 0,0 l/m 0,0 km/h O -2,3 C 0,9 C 0,0 km/h
23.12.2014 20:00 0,1 C 81 % 994,0 hPa 0,0 l/m 0,0 km/h O-SO -2,8 C 0,1 C 0,0 km/h
23.12.2014 21:00 -0,4 C 83 % 994,0 hPa 0,0 l/m 0,0 km/h O-SO -2,9 C -0,4 C 0,0 km/h
23.12.2014 22:00 -0,4 C 84 % 994,2 hPa 0,0 l/m 0,0 km/h O -2,8 C -0,4 C 0,0 km/h
23.12.2014 23:00 -0,7 C 85 % 994,1 hPa 0,0 l/m 0,0 km/h SO -2,9 C -0,7 C 0,0 km/h
24.12.2014 00:00 -0,8 C 85 % 994,4 hPa 0,0 l/m 0,0 km/h SO -3,0 C -0,8 C 0,0 km/h
24.12.2014 01:00 3,4 C 81 % 994,5 hPa 0,0 l/m 2,5 km/h SW 0,5 C 3,4 C 2,5 km/h
24.12.2014 02:00 6,4 C 71 % 995,1 hPa 0,0 l/m 13,7 km/h W 1,5 C 1,4 C 13,7 km/h
24.12.2014 03:00 5,9 C 70 % 995,0 hPa 0,0 l/m 9,7 km/h N 0,9 C 3,3 C 9,7 km/h
24.12.2014 04:00 3,8 C 76 % 995,5 hPa 0,0 l/m 5,4 km/h W-NW -0,0 C 3,8 C 5,4 km/h
24.12.2014 05:00 2,4 C 79 % 996,1 hPa 0,0 l/m 0,0 km/h N-NO -0,9 C 2,4 C 0,0 km/h
24.12.2014 06:00 1,2 C 82 % 996,3 hPa 0,0 l/m 0,0 km/h W-SW -1,5 C 1,2 C 0,0 km/h
24.12.2014 07:00 3,2 C 84 % 996,5 hPa 0,0 l/m 13,6 km/h S 0,8 C -2,3 C 7,6 km/h
24.12.2014 08:00 4,9 C 82 % 996,4 hPa 0,0 l/m 7,8 km/h W-SW 2,1 C 3,7 C 4,3 km/h
24.12.2014 09:00 6,6 C 77 % 996,3 hPa 0,0 l/m 16,2 km/h W-SW 2,9 C 0,5 C 9,0 km/h
24.12.2014 10:00 7,8 C 73 % 996,8 hPa 0,0 l/m 39,5 km/h W-SW 3,3 C -4,3 C 22,0 km/h
24.12.2014 11:00 8,4 C 72 % 996,6 hPa 0,0 l/m 30,5 km/h W-SW 3,7 C -1,7 C 16,9 km/h
24.12.2014 12:00 8,2 C 72 % 995,6 hPa 0,0 l/m 18,8 km/h SW 3,5 C 1,4 C 10,4 km/h
24.12.2014 13:00 9,2 C 70 % 995,1 hPa 0,0 l/m 14,3 km/h S 4,0 C 4,5 C 7,9 km/h
24.12.2014 14:00 9,8 C 68 % 994,9 hPa 0,0 l/m 18,1 km/h W 4,2 C 3,7 C 10,1 km/h
24.12.2014 15:00 10,9 C 66 % 994,3 hPa 0,0 l/m 24,6 km/h W 4,8 C 3,2 C 13,7 km/h
24.12.2014 16:00 8,7 C 72 % 994,3 hPa 0,0 l/m 21,4 km/h SW 3,9 C 1,1 C 11,9 km/h
24.12.2014 17:00 8,9 C 71 % 994,5 hPa 0,0 l/m 24,0 km/h W-SW 3,9 C 0,6 C 13,3 km/h
24.12.2014 18:00 8,8 C 71 % 994,7 hPa 0,0 l/m 34,3 km/h SW 3,8 C -1,9 C 19,1 km/h
24.12.2014 19:00 9,4 C 69 % 994,8 hPa 0,0 l/m 20,5 km/h W-SW 4,0 C 2,3 C 20,5 km/h
24.12.2014 20:00 9,4 C 69 % 995,1 hPa 0,0 l/m 12,2 km/h S-SW 4,0 C 5,7 C 12,2 km/h
24.12.2014 21:00 9,3 C 70 % 994,9 hPa 0,0 l/m 12,2 km/h SW 4,1 C 5,6 C 12,2 km/h
24.12.2014 22:00 9,2 C 71 % 995,0 hPa 0,0 l/m 15,5 km/h SW 4,2 C 4,0 C 15,5 km/h
24.12.2014 23:00 8,9 C 74 % 994,8 hPa 0,0 l/m 19,4 km/h W-SW 4,5 C 2,1 C 19,4 km/h
25.12.2014 00:00 8,8 C 77 % 994,6 hPa 0,0 l/m 14,8 km/h SW 5,0 C 3,8 C 14,8 km/h
25.12.2014 01:00 8,4 C 80 % 995,0 hPa 0,0 l/m 14,0 km/h S-SW 5,2 C 3,7 C 14,0 km/h
25.12.2014 02:00 8,3 C 82 % 995,2 hPa 0,0 l/m 11,9 km/h SW 5,4 C 4,6 C 11,9 km/h
25.12.2014 03:00 8,1 C 83 % 995,0 hPa 0,0 l/m 10,1 km/h SW 5,4 C 5,4 C 10,1 km/h
25.12.2014 04:00 7,9 C 84 % 995,0 hPa 0,0 l/m 11,2 km/h W 5,4 C 4,5 C 11,2 km/h
25.12.2014 05:00 7,5 C 85 % 995,3 hPa 0,0 l/m 0,7 km/h N-NW 5,1 C 7,5 C 0,7 km/h
25.12.2014 06:00 6,8 C 86 % 995,9 hPa 0,0 l/m 0,0 km/h NW 4,6 C 6,8 C 0,0 km/h
25.12.2014 07:00 5,6 C 86 % 996,4 hPa 0,2 l/m 0,0 km/h S 3,4 C 5,6 C 0,0 km/h
25.12.2014 08:00 5,3 C 86 % 997,2 hPa 0,0 l/m 0,0 km/h W-NW 3,2 C 5,3 C 0,0 km/h
25.12.2014 09:00 6,1 C 85 % 997,9 hPa 0,0 l/m 0,0 km/h W-NW 3,8 C 6,1 C 0,0 km/h
25.12.2014 10:00 6,4 C 82 % 998,5 hPa 0,0 l/m 1,9 km/h W-NW 3,6 C 6,4 C 1,1 km/h
25.12.2014 11:00 7,3 C 72 % 998,7 hPa 0,0 l/m 0,0 km/h N-NW 2,6 C 7,3 C 0,0 km/h
25.12.2014 12:00 7,7 C 68 % 998,3 hPa 0,0 l/m 0,0 km/h W-SW 2,2 C 7,7 C 0,0 km/h
25.12.2014 13:00 7,4 C 68 % 998,1 hPa 0,0 l/m 0,0 km/h W-NW 1,9 C 7,4 C 0,0 km/h
25.12.2014 14:00 6,7 C 69 % 998,1 hPa 0,0 l/m 0,6 km/h W 1,4 C 6,7 C 0,4 km/h
25.12.2014 15:00 5,6 C 74 % 998,2 hPa 0,0 l/m 0,0 km/h W-NW 1,3 C 5,6 C 0,0 km/h
25.12.2014 16:00 5,3 C 73 % 998,6 hPa 0,0 l/m 0,0 km/h W 0,9 C 5,3 C 0,0 km/h
25.12.2014 17:00 4,8 C 77 % 998,9 hPa 0,0 l/m 0,0 km/h W 1,1 C 4,8 C 0,0 km/h
25.12.2014 18:00 4,4 C 80 % 999,5 hPa 0,0 l/m 0,0 km/h W-SW 1,3 C 4,4 C 0,0 km/h
25.12.2014 19:00 3,9 C 81 % 999,8 hPa 0,0 l/m 0,0 km/h W-SW 0,9 C 3,9 C 0,0 km/h
25.12.2014 20:00 3,8 C 82 % 1000,0 hPa 0,0 l/m 0,0 km/h W 1,0 C 3,8 C 0,0 km/h
25.12.2014 21:00 3,6 C 83 % 1000,4 hPa 0,0 l/m 1,4 km/h SW 1,0 C 3,6 C 1,4 km/h
25.12.2014 22:00 2,6 C 84 % 1000,5 hPa 0,0 l/m 0,0 km/h N-NW 0,2 C 2,6 C 0,0 km/h
25.12.2014 23:00 1,2 C 85 % 1000,5 hPa 0,0 l/m 0,0 km/h N-NW -1,0 C 1,2 C 0,0 km/h
26.12.2014 00:00 1,5 C 86 % 1000,4 hPa 0,0 l/m 0,0 km/h N-NW -0,6 C 1,5 C 0,0 km/h
26.12.2014 01:00 1,9 C 86 % 1000,6 hPa 0,0 l/m 0,0 km/h N-NW -0,2 C 1,9 C 0,0 km/h
26.12.2014 02:00 2,3 C 87 % 1001,0 hPa 0,0 l/m 0,0 km/h SO 0,4 C 2,3 C 0,0 km/h
26.12.2014 03:00 1,9 C 87 % 1000,5 hPa 0,2 l/m 0,0 km/h SO -0,0 C 1,9 C 0,0 km/h
26.12.2014 04:00 1,4 C 87 % 1000,4 hPa 0,0 l/m 0,0 km/h SO -0,5 C 1,4 C 0,0 km/h
26.12.2014 05:00 1,5 C 87 % 1000,2 hPa 0,0 l/m 0,0 km/h O-SO -0,4 C 1,5 C 0,0 km/h
26.12.2014 06:00 1,9 C 87 % 1000,5 hPa 0,2 l/m 0,0 km/h NO -0,0 C 1,9 C 0,0 km/h
26.12.2014 07:00 2,1 C 87 % 1000,5 hPa 0,0 l/m 0,0 km/h NO 0,2 C 2,1 C 0,0 km/h
26.12.2014 08:00 2,1 C 87 % 1001,0 hPa 0,0 l/m 0,0 km/h NO 0,2 C 2,1 C 0,0 km/h
26.12.2014 09:00 2,9 C 86 % 1001,3 hPa 0,0 l/m 0,0 km/h N-NO 0,8 C 2,9 C 0,0 km/h
26.12.2014 10:00 3,7 C 87 % 1001,3 hPa 0,0 l/m 0,0 km/h W-SW 1,7 C 3,7 C 0,0 km/h
26.12.2014 11:00 4,4 C 86 % 1000,9 hPa 0,0 l/m 5,8 km/h W-SW 2,3 C 4,4 C 3,2 km/h
26.12.2014 12:00 5,4 C 84 % 1000,3 hPa 0,0 l/m 0,0 km/h W-SW 2,9 C 5,4 C 0,0 km/h
26.12.2014 13:00 5,3 C 82 % 999,6 hPa 0,0 l/m 0,0 km/h W-SW 2,5 C 5,3 C 0,0 km/h
26.12.2014 14:00 4,3 C 81 % 999,4 hPa 0,2 l/m 0,0 km/h SO 1,3 C 4,3 C 0,0 km/h
26.12.2014 15:00 4,1 C 84 % 999,1 hPa 0,0 l/m 1,9 km/h SO 1,6 C 4,1 C 1,1 km/h
26.12.2014 16:00 2,7 C 86 % 998,8 hPa 0,0 l/m 0,0 km/h SO 0,6 C 2,7 C 0,0 km/h
26.12.2014 17:00 2,7 C 86 % 998,6 hPa 0,0 l/m 0,0 km/h S-SO 0,6 C 2,7 C 0,0 km/h
26.12.2014 18:00 1,8 C 87 % 998,2 hPa 0,2 l/m 0,0 km/h O-SO -0,1 C 1,8 C 0,0 km/h
26.12.2014 19:00 1,5 C 87 % 997,6 hPa 0,0 l/m 0,0 km/h O-SO -0,4 C 1,5 C 0,0 km/h
26.12.2014 20:00 1,3 C 87 % 997,0 hPa 0,0 l/m 0,0 km/h O-SO -0,6 C 1,3 C 0,0 km/h
26.12.2014 21:00 -0,1 C 87 % 995,8 hPa 0,0 l/m 0,0 km/h O-SO -2,0 C -0,1 C 0,0 km/h
26.12.2014 22:00 -0,9 C 87 % 994,3 hPa 0,0 l/m 0,0 km/h O-SO -2,8 C -0,9 C 0,0 km/h
26.12.2014 23:00 -1,6 C 87 % 993,1 hPa 0,0 l/m 0,0 km/h O-SO -3,5 C -1,6 C 0,0 km/h
27.12.2014 00:00 -1,4 C 87 % 991,2 hPa 0,0 l/m 0,0 km/h O-SO -3,3 C -1,4 C 0,0 km/h
27.12.2014 01:00 -0,7 C 87 % 989,4 hPa 0,0 l/m 0,0 km/h O-SO -2,6 C -0,7 C 0,0 km/h
27.12.2014 02:00 -0,2 C 86 % 987,3 hPa 0,0 l/m 4,3 km/h O-SO -2,3 C -0,2 C 4,3 km/h
27.12.2014 03:00 1,2 C 87 % 984,6 hPa 0,0 l/m 0,0 km/h S -0,7 C 1,2 C 0,0 km/h
27.12.2014 04:00 2,2 C 83 % 982,4 hPa 0,0 l/m 7,6 km/h SO -0,4 C 1,0 C 7,6 km/h
27.12.2014 05:00 0,8 C 85 % 979,6 hPa 0,0 l/m 0,0 km/h SO -1,4 C 0,8 C 0,0 km/h
27.12.2014 06:00 0,6 C 87 % 976,6 hPa 0,0 l/m 2,6 km/h NO -1,3 C 0,6 C 1,4 km/h
27.12.2014 07:00 0,9 C 87 % 974,9 hPa 0,2 l/m 0,0 km/h W -1,0 C 0,9 C 0,0 km/h
27.12.2014 08:00 1,3 C 87 % 972,7 hPa 0,4 l/m 0,0 km/h W -0,6 C 1,3 C 0,0 km/h
27.12.2014 09:00 3,5 C 87 % 972,3 hPa 0,4 l/m 7,8 km/h W 1,5 C 2,2 C 4,3 km/h
27.12.2014 10:00 4,3 C 87 % 971,2 hPa 0,0 l/m 21,4 km/h W-SW 2,3 C -4,6 C 11,9 km/h
27.12.2014 11:00 4,9 C 86 % 970,8 hPa 0,0 l/m 44,1 km/h W-SW 2,8 C -9,3 C 24,5 km/h
27.12.2014 12:00 4,7 C 86 % 970,5 hPa 0,0 l/m 16,2 km/h SW 2,6 C -1,9 C 9,0 km/h
27.12.2014 13:00 4,2 C 85 % 970,0 hPa 0,0 l/m 18,8 km/h SW 1,9 C -3,7 C 10,4 km/h
27.12.2014 14:00 4,1 C 84 % 969,6 hPa 0,0 l/m 20,1 km/h SW 1,6 C -4,4 C 11,2 km/h
27.12.2014 15:00 3,3 C 87 % 969,3 hPa 0,0 l/m 27,9 km/h W 1,3 C -8,2 C 15,5 km/h
27.12.2014 16:00 3,1 C 87 % 968,6 hPa 0,0 l/m 39,5 km/h SW 1,2 C -11,2 C 22,0 km/h
27.12.2014 17:00 2,8 C 87 % 968,6 hPa 0,0 l/m 22,0 km/h W-SW 0,9 C -6,8 C 12,2 km/h
27.12.2014 18:00 2,9 C 86 % 968,7 hPa 0,0 l/m 42,8 km/h S 0,8 C -12,1 C 23,8 km/h
27.12.2014 19:00 2,5 C 87 % 968,9 hPa 0,2 l/m 22,7 km/h W-SW 0,6 C -7,5 C 22,7 km/h
27.12.2014 20:00 1,1 C 87 % 969,4 hPa 0,2 l/m 11,9 km/h S-SW -0,8 C -3,7 C 11,9 km/h
27.12.2014 21:00 1,3 C 85 % 969,4 hPa 0,4 l/m 24,1 km/h W -0,9 C -9,6 C 24,1 km/h
27.12.2014 22:00 1,3 C 86 % 969,7 hPa 0,0 l/m 8,6 km/h SW -0,8 C -0,8 C 8,6 km/h
27.12.2014 23:00 1,4 C 87 % 969,9 hPa 0,0 l/m 13,7 km/h W-SW -0,5 C -4,5 C 13,7 km/h
28.12.2014 00:00 0,9 C 87 % 970,3 hPa 0,0 l/m 3,2 km/h SW -1,0 C 0,9 C 3,2 km/h
28.12.2014 01:00 0,9 C 86 % 970,8 hPa 0,2 l/m 5,8 km/h W -1,2 C 0,9 C 5,8 km/h
28.12.2014 02:00 0,5 C 86 % 971,5 hPa 0,0 l/m 0,0 km/h W-NW -1,6 C 0,5 C 0,0 km/h
28.12.2014 03:00 0,1 C 86 % 972,6 hPa 0,2 l/m 0,0 km/h W-NW -2,0 C 0,1 C 0,0 km/h
28.12.2014 04:00 0,1 C 86 % 973,5 hPa 0,0 l/m 0,0 km/h W-NW -2,0 C 0,1 C 0,0 km/h
28.12.2014 05:00 0,0 C 85 % 974,5 hPa 0,0 l/m 0,0 km/h W-NW -2,2 C 0,0 C 0,0 km/h
28.12.2014 06:00 -0,1 C 85 % 976,0 hPa 0,0 l/m 0,0 km/h NW -2,3 C -0,1 C 0,0 km/h
28.12.2014 07:00 -0,8 C 86 % 977,7 hPa 0,0 l/m 0,0 km/h NW -2,8 C -0,8 C 0,0 km/h
28.12.2014 08:00 -0,7 C 85 % 979,7 hPa 0,0 l/m 0,0 km/h NW -2,9 C -0,7 C 0,0 km/h
28.12.2014 09:00 -0,8 C 87 % 982,0 hPa 0,0 l/m 0,0 km/h NW -2,7 C -0,8 C 0,0 km/h
28.12.2014 10:00 -0,7 C 88 % 984,1 hPa 0,0 l/m 0,0 km/h NW -2,4 C -0,7 C 0,0 km/h
28.12.2014 11:00 -0,8 C 87 % 985,5 hPa 0,0 l/m 0,0 km/h N-NO -2,7 C -0,8 C 0,0 km/h
28.12.2014 12:00 -0,9 C 85 % 986,7 hPa 0,0 l/m 0,0 km/h N -3,1 C -0,9 C 0,0 km/h
28.12.2014 13:00 -1,4 C 85 % 988,2 hPa 0,0 l/m 0,0 km/h N-NO -3,6 C -1,4 C 0,0 km/h
28.12.2014 14:00 -1,4 C 85 % 990,0 hPa 0,0 l/m 0,0 km/h N-NO -3,6 C -1,4 C 0,0 km/h
28.12.2014 15:00 -1,9 C 85 % 992,0 hPa 0,0 l/m 0,0 km/h N -4,1 C -1,9 C 0,0 km/h
28.12.2014 16:00 -2,4 C 84 % 993,6 hPa 0,0 l/m 0,0 km/h N -4,7 C -2,4 C 0,0 km/h
28.12.2014 17:00 -3,6 C 83 % 995,1 hPa 0,0 l/m 0,0 km/h N-NO -6,1 C -3,6 C 0,0 km/h
28.12.2014 18:00 -4,7 C 83 % 996,9 hPa 0,0 l/m 0,0 km/h N-NO -7,1 C -4,7 C 0,0 km/h
28.12.2014 19:00 -5,4 C 83 % 998,2 hPa 0,0 l/m 0,0 km/h N -7,8 C -5,4 C 0,0 km/h
28.12.2014 20:00 -5,9 C 82 % 999,4 hPa 0,0 l/m 1,8 km/h N-NO -8,5 C -5,9 C 1,8 km/h
28.12.2014 21:00 -6,6 C 81 % 1000,9 hPa 0,0 l/m 0,0 km/h O-SO -9,3 C -6,6 C 0,0 km/h
28.12.2014 22:00 -8,1 C 83 % 1002,0 hPa 0,0 l/m 0,0 km/h O-SO -10,5 C -8,1 C 0,0 km/h
28.12.2014 23:00 -9,2 C 84 % 1002,5 hPa 0,0 l/m 0,0 km/h O-SO -11,4 C -9,2 C 0,0 km/h
Min-Datum _ 28.12.14 23.12.14 27.12.14 - 22.12.14 - 28.12.14 27.12.14 22.12.14
_ Min-Zeit 23:53 14:53 16:53 - 06:53 - 23:53 18:53 06:53
Minimum _ -9,2 C 41 % 968,6 hPa - 0,0 km/h - -11,4 C -12,1 C 0,0 km/h
Max-Datum _ 23.12.14 28.12.14 22.12.14 27.12.14 27.12.14 - 25.12.14 23.12.14 27.12.14
_ Max-Zeit 14:53 10:53 00:53 08:53 11:53 - 02:53 14:53 11:53
Maximum _ 18,6 C 88 % 1002,5 hPa 0,4 l/m 44,1 km/h
W-SW
- 5,4 C 18,6 C 24,5 km/h
W-SW
Durchschnitt _ 4,0 C 78 % 992,7 hPa #3,5 l/m 6,8 km/h W-SW 0,4 C 1,7 C 4,7 km/h
www.sexauwetter.de